createdAt,value
2023-03-22T00:00:38.073Z,12.73
2023-03-22T00:06:05.210Z,12.87
2023-03-22T00:11:32.054Z,12.78
2023-03-22T00:16:59.111Z,12.82
2023-03-22T00:22:26.373Z,12.84
2023-03-22T00:27:53.681Z,12.81
2023-03-22T00:33:21.760Z,12.86
2023-03-22T00:38:49.198Z,12.80
2023-03-22T00:44:16.273Z,12.78
2023-03-22T00:49:45.452Z,12.72
2023-03-22T00:55:13.025Z,12.70
2023-03-22T01:00:40.580Z,12.67
2023-03-22T01:06:08.931Z,12.70
2023-03-22T01:11:36.470Z,12.68
2023-03-22T01:17:04.907Z,12.72
2023-03-22T01:22:32.187Z,12.73
2023-03-22T01:27:59.639Z,12.77
2023-03-22T01:33:27.541Z,12.87
2023-03-22T01:38:55.121Z,12.85
2023-03-22T01:49:53.832Z,12.98
2023-03-22T01:55:23.701Z,12.91
2023-03-22T02:01:00.348Z,13.03
2023-03-22T02:06:42.759Z,12.99
2023-03-22T02:12:36.968Z,12.94
2023-03-22T02:18:39.281Z,12.90
2023-03-22T02:24:43.886Z,12.87
2023-03-22T02:30:32.133Z,12.82
2023-03-22T02:36:24.390Z,12.80
2023-03-22T02:42:06.452Z,12.81
2023-03-22T02:47:49.453Z,12.80
2023-03-22T02:53:22.919Z,12.89
2023-03-22T02:58:55.178Z,12.89
2023-03-22T03:04:29.119Z,12.85
2023-03-22T03:10:01.437Z,12.85
2023-03-22T03:15:28.662Z,12.91
2023-03-22T03:21:22.401Z,12.88
2023-03-22T03:27:07.489Z,12.92
2023-03-22T03:32:42.359Z,13.00
2023-03-22T03:38:15.270Z,13.12
2023-03-22T03:43:43.711Z,13.22
2023-03-22T03:49:13.231Z,13.20
2023-03-22T03:54:42.024Z,13.23
2023-03-22T04:00:15.372Z,13.26
2023-03-22T04:06:04.595Z,13.28
2023-03-22T04:11:36.732Z,13.27
2023-03-22T04:17:04.876Z,13.25
2023-03-22T04:22:34.780Z,13.22
2023-03-22T04:28:04.502Z,13.07
2023-03-22T04:33:39.711Z,12.96
2023-03-22T04:39:26.001Z,12.83
2023-03-22T04:45:03.786Z,12.70
2023-03-22T04:50:31.901Z,12.57
2023-03-22T04:56:05.911Z,12.41
2023-03-22T05:01:35.639Z,12.35
2023-03-22T05:07:12.286Z,12.25
2023-03-22T05:12:48.406Z,12.33
2023-03-22T05:18:26.494Z,12.41
2023-03-22T05:23:59.013Z,12.44
2023-03-22T05:29:28.322Z,12.51
2023-03-22T05:35:15.823Z,12.67
2023-03-22T05:40:49.620Z,12.78
2023-03-22T05:52:52.395Z,13.38
2023-03-22T05:58:44.007Z,13.58
2023-03-22T06:04:17.315Z,13.70
2023-03-22T06:10:05.854Z,13.92
2023-03-22T06:15:33.305Z,14.09
2023-03-22T06:21:06.885Z,14.36
2023-03-22T06:26:34.485Z,14.77
2023-03-22T06:32:03.969Z,15.23
2023-03-22T06:37:33.159Z,15.90
2023-03-22T06:43:05.122Z,18.88
2023-03-22T06:48:35.013Z,22.96
2023-03-22T06:54:06.448Z,25.12
2023-03-22T06:59:34.999Z,25.38
2023-03-22T07:05:03.314Z,25.71
2023-03-22T07:10:31.308Z,25.31
2023-03-22T07:16:01.719Z,25.44
2023-03-22T07:21:39.284Z,25.89
2023-03-22T07:27:11.474Z,24.97
2023-03-22T07:32:42.230Z,25.85
2023-03-22T07:38:13.989Z,26.72
2023-03-22T07:43:53.960Z,26.39
2023-03-22T07:49:24.458Z,25.82
2023-03-22T07:55:05.892Z,25.18
2023-03-22T08:00:34.000Z,26.28
2023-03-22T08:06:33.752Z,26.34
2023-03-22T08:12:01.748Z,27.70
2023-03-22T08:17:30.537Z,29.41
2023-03-22T08:22:57.892Z,29.38
2023-03-22T08:28:27.784Z,29.59
2023-03-22T08:33:55.682Z,29.43
2023-03-22T08:39:24.719Z,31.01
2023-03-22T08:45:11.135Z,31.93
2023-03-22T08:50:45.344Z,32.17
2023-03-22T08:56:22.889Z,33.74
2023-03-22T09:02:03.632Z,32.93
2023-03-22T09:07:31.841Z,32.14
2023-03-22T09:13:17.803Z,31.48
2023-03-22T09:18:51.588Z,31.23
2023-03-22T09:24:21.514Z,31.07
2023-03-22T09:29:54.645Z,30.59
2023-03-22T09:35:22.265Z,30.07
2023-03-22T09:41:06.600Z,28.92
2023-03-22T09:46:41.005Z,28.82
2023-03-22T09:52:14.850Z,29.27
2023-03-22T09:57:42.329Z,29.10
2023-03-22T10:03:22.082Z,29.31
2023-03-22T10:09:02.131Z,29.32
2023-03-22T10:15:05.289Z,29.11
2023-03-22T10:20:46.706Z,29.63
2023-03-22T10:26:34.913Z,29.60
2023-03-22T10:32:32.399Z,28.78
2023-03-22T10:38:03.828Z,28.91
2023-03-22T10:43:39.950Z,28.89
2023-03-22T10:49:08.505Z,28.19
2023-03-22T10:54:38.044Z,28.33
2023-03-22T11:00:13.881Z,28.47
2023-03-22T11:05:41.150Z,28.04
2023-03-22T11:11:20.943Z,27.68
2023-03-22T11:17:07.015Z,27.11
2023-03-22T11:22:48.538Z,26.77
2023-03-22T11:28:22.196Z,27.23
2023-03-22T11:34:01.012Z,26.75
2023-03-22T11:39:29.558Z,26.20
2023-03-22T11:44:57.680Z,25.87
2023-03-22T11:50:27.388Z,26.05
2023-03-22T11:55:58.118Z,25.86
2023-03-22T12:01:35.735Z,26.11
2023-03-22T12:07:11.847Z,27.01
2023-03-22T12:12:54.981Z,27.03
2023-03-22T12:18:38.914Z,27.02
2023-03-22T12:24:21.362Z,27.13
2023-03-22T12:30:00.287Z,26.73
2023-03-22T12:35:32.343Z,26.41
2023-03-22T12:41:05.024Z,26.24
2023-03-22T12:46:43.105Z,26.76
2023-03-22T12:52:13.006Z,26.71
2023-03-22T12:57:40.614Z,26.38
2023-03-22T13:03:23.368Z,24.95
2023-03-22T13:09:24.949Z,25.67
2023-03-22T13:15:01.964Z,25.12
2023-03-22T13:20:34.230Z,25.33
2023-03-22T13:26:06.225Z,24.95
2023-03-22T13:31:44.720Z,25.45
2023-03-22T13:37:31.347Z,25.71
2023-03-22T13:43:16.869Z,25.76
2023-03-22T13:48:47.997Z,25.92
2023-03-22T13:54:18.684Z,26.51
2023-03-22T14:00:15.129Z,26.63
2023-03-22T14:05:46.359Z,26.77
2023-03-22T14:11:55.859Z,26.95
2023-03-22T14:17:35.897Z,27.04
